Time;durP1;ratioP1;P1;durP2;ratioP2;P2;SDS_P1;SDS_P2;PMS_P1;PMS_P2;Temp;Humidity;BMP_temperature;BMP_pressure;BME280_temperature;BME280_humidity;BME280_pressure;Samples;Min_cycle;Max_cycle;Signal;HPM_P1;HPM_P2
2021/08/28 00:01:48;;;;;;;0.10;0.10;;;18.70;79.00;;;;;;4899510;29;20075;-73
2021/08/28 00:04:14;;;;;;;0.00;0.00;;;18.70;79.10;;;;;;4899907;29;20040;-72
2021/08/28 00:06:39;;;;;;;0.00;0.00;;;18.70;79.00;;;;;;4899286;29;20385;-71
2021/08/28 00:09:05;;;;;;;0.00;0.00;;;18.70;79.10;;;;;;4899232;29;20035;-73
2021/08/28 00:11:31;;;;;;;0.10;0.10;;;18.70;79.10;;;;;;4898907;29;20462;-71
2021/08/28 00:13:57;;;;;;;0.00;0.00;;;18.70;79.00;;;;;;4899169;29;20035;-73
2021/08/28 00:16:22;;;;;;;0.00;0.00;;;18.70;78.70;;;;;;4899418;29;20032;-72
2021/08/28 00:18:48;;;;;;;0.00;0.00;;;18.70;78.60;;;;;;4899349;29;20540;-71
2021/08/28 00:21:14;;;;;;;0.00;0.00;;;18.70;78.50;;;;;;4898538;29;20119;-71
2021/08/28 00:23:40;;;;;;;0.00;0.00;;;18.70;78.40;;;;;;4882157;29;20115;-73
2021/08/28 00:26:06;;;;;;;0.00;0.00;;;18.80;78.30;;;;;;4899033;29;20036;-74
2021/08/28 00:28:31;;;;;;;0.00;0.00;;;18.70;78.10;;;;;;4898672;29;20447;-73
2021/08/28 00:30:57;;;;;;;0.00;0.00;;;18.80;78.10;;;;;;4899293;29;20056;-73
2021/08/28 00:33:23;;;;;;;0.00;0.00;;;18.80;78.20;;;;;;4898593;29;20104;-73
2021/08/28 00:35:48;;;;;;;0.00;0.00;;;18.80;78.20;;;;;;4899400;29;20031;-72
2021/08/28 00:38:14;;;;;;;0.00;0.00;;;18.80;78.10;;;;;;4899062;29;20040;-73
2021/08/28 00:40:40;;;;;;;0.00;0.00;;;18.80;78.10;;;;;;4898839;29;20481;-72
2021/08/28 00:43:06;;;;;;;0.00;0.00;;;18.80;78.10;;;;;;4898727;29;20087;-72
2021/08/28 00:45:33;;;;;;;0.00;0.00;;;18.70;78.10;;;;;;4898737;29;20033;-72
2021/08/28 00:48:02;;;;;;;0.00;0.00;;;18.70;78.30;;;;;;4881950;29;20037;-72
2021/08/28 00:50:46;;;;;;;0.00;0.00;;;18.70;78.30;;;;;;4899113;29;20465;-73
2021/08/28 00:53:16;;;;;;;0.00;0.00;;;18.70;78.20;;;;;;4882096;29;20451;-73
2021/08/28 00:55:47;;;;;;;0.00;0.00;;;18.70;78.10;;;;;;4898687;29;20040;-73
2021/08/28 00:58:14;;;;;;;0.00;0.00;;;18.70;78.20;;;;;;4898659;29;20073;-73
2021/08/28 01:00:56;;;;;;;0.00;0.00;;;18.80;78.10;;;;;;4897778;29;20028;-72
2021/08/28 01:03:32;;;;;;;0.00;0.00;;;18.70;78.00;;;;;;4898817;29;20039;-73
2021/08/28 01:06:26;;;;;;;0.00;0.00;;;18.70;77.80;;;;;;4898575;29;20056;-73
2021/08/28 01:09:02;;;;;;;0.00;0.00;;;18.70;77.80;;;;;;4898621;29;20029;-73
2021/08/28 01:11:30;;;;;;;0.00;0.00;;;18.80;77.80;;;;;;4882132;29;20517;-72
2021/08/28 01:14:13;;;;;;;0.00;0.00;;;18.70;77.70;;;;;;4898536;29;20043;-73
2021/08/28 01:16:42;;;;;;;0.00;0.00;;;18.70;77.70;;;;;;4882201;29;20025;-73
2021/08/28 01:19:18;;;;;;;0.00;0.00;;;18.70;77.70;;;;;;4898430;29;20587;-74
2021/08/28 01:21:46;;;;;;;0.00;0.00;;;18.70;77.80;;;;;;4898408;29;20374;-73
2021/08/28 01:24:15;;;;;;;0.00;0.00;;;18.70;77.90;;;;;;4898400;29;20033;-71
2021/08/28 01:26:48;;;;;;;0.10;0.00;;;18.70;77.90;;;;;;4898092;29;20029;-71
2021/08/28 01:29:20;;;;;;;0.00;0.00;;;18.60;78.00;;;;;;4898232;29;20055;-72
2021/08/28 01:31:51;;;;;;;0.00;0.00;;;18.60;78.00;;;;;;4898831;29;20092;-72
2021/08/28 01:34:19;;;;;;;0.00;0.00;;;18.60;78.20;;;;;;4898092;29;20439;-72
2021/08/28 01:36:46;;;;;;;0.00;0.00;;;18.50;78.30;;;;;;4898404;29;20044;-72
2021/08/28 01:39:13;;;;;;;0.00;0.00;;;18.50;78.50;;;;;;4898334;29;20055;-73
2021/08/28 01:41:41;;;;;;;0.00;0.00;;;18.40;78.60;;;;;;4881587;29;20506;-72
2021/08/28 01:44:10;;;;;;;0.00;0.00;;;18.40;78.80;;;;;;4898226;29;20072;-72
2021/08/28 01:46:41;;;;;;;0.10;0.10;;;18.40;78.90;;;;;;4898200;29;20056;-72
2021/08/28 01:49:08;;;;;;;0.05;0.05;;;18.30;79.10;;;;;;4898451;29;20033;-72
2021/08/28 01:51:34;;;;;;;0.00;0.00;;;18.30;79.10;;;;;;4898476;29;20037;-72
2021/08/28 01:54:00;;;;;;;0.10;0.10;;;18.30;79.10;;;;;;4881387;29;20146;-72
2021/08/28 01:56:26;;;;;;;0.00;0.00;;;18.30;79.20;;;;;;4898097;29;20531;-72
2021/08/28 01:58:53;;;;;;;0.00;0.00;;;18.30;79.20;;;;;;4898044;29;20036;-72
2021/08/28 02:01:19;;;;;;;0.20;0.10;;;18.40;79.20;;;;;;4897347;29;20028;-72
2021/08/28 02:03:45;;;;;;;0.00;0.00;;;18.40;79.00;;;;;;4898513;29;20025;-72
2021/08/28 02:06:35;;;;;;;0.00;0.00;;;18.40;78.80;;;;;;4900180;29;20039;-72
2021/08/28 02:09:24;;;;;;;0.00;0.00;;;18.50;78.60;;;;;;4901541;29;20156;-72
2021/08/28 02:12:00;;;;;;;0.00;0.00;;;18.50;78.20;;;;;;4900838;29;20550;-71
2021/08/28 02:14:51;;;;;;;0.00;0.00;;;18.60;77.80;;;;;;4901374;29;20028;-72
2021/08/28 02:17:18;;;;;;;0.00;0.00;;;18.70;77.30;;;;;;4885036;29;20036;-72
2021/08/28 02:19:47;;;;;;;0.00;0.00;;;18.80;76.70;;;;;;4885037;29;20033;-72
2021/08/28 02:22:22;;;;;;;0.00;0.00;;;18.80;76.20;;;;;;4901391;29;20044;-73
2021/08/28 02:24:55;;;;;;;0.00;0.00;;;18.90;76.10;;;;;;4901053;29;20051;-72
2021/08/28 02:27:31;;;;;;;0.00;0.00;;;18.90;75.90;;;;;;4900891;29;20033;-72
2021/08/28 02:30:02;;;;;;;0.00;0.00;;;18.90;75.70;;;;;;4900898;29;20059;-71
2021/08/28 02:32:30;;;;;;;0.00;0.00;;;18.90;75.60;;;;;;4900535;29;20052;-72
2021/08/28 02:34:57;;;;;;;0.00;0.00;;;18.90;75.70;;;;;;4900982;29;20027;-72
2021/08/28 02:37:23;;;;;;;0.00;0.00;;;18.90;75.60;;;;;;4901326;29;20123;-73
2021/08/28 02:39:50;;;;;;;0.00;0.00;;;18.90;75.60;;;;;;4901218;29;20035;-72
2021/08/28 02:42:17;;;;;;;0.00;0.00;;;18.80;75.40;;;;;;4900203;29;20101;-73
2021/08/28 02:44:45;;;;;;;0.00;0.00;;;18.80;75.50;;;;;;4900823;29;20068;-73
2021/08/28 02:47:12;;;;;;;0.00;0.00;;;18.80;75.50;;;;;;4900371;29;20037;-73
2021/08/28 02:49:40;;;;;;;0.00;0.00;;;18.80;75.50;;;;;;4884579;29;20458;-73
2021/08/28 02:52:07;;;;;;;0.10;0.00;;;18.80;75.40;;;;;;4900310;29;20041;-74
2021/08/28 02:54:36;;;;;;;0.00;0.00;;;18.80;75.40;;;;;;4900290;29;20029;-73
2021/08/28 02:57:04;;;;;;;0.00;0.00;;;18.80;75.30;;;;;;4901135;29;20461;-73
2021/08/28 02:59:31;;;;;;;0.00;0.00;;;18.90;75.30;;;;;;4900466;29;20426;-72
2021/08/28 03:01:57;;;;;;;0.00;0.00;;;18.90;75.10;;;;;;4884001;29;20124;-73
2021/08/28 03:04:24;;;;;;;0.00;0.00;;;19.00;75.10;;;;;;4900088;29;20108;-73
2021/08/28 03:06:50;;;;;;;0.00;0.00;;;19.00;75.00;;;;;;4900608;29;20092;-73
2021/08/28 03:09:17;;;;;;;0.00;0.00;;;19.00;74.90;;;;;;4900302;29;20104;-74
2021/08/28 03:11:44;;;;;;;0.00;0.00;;;19.00;74.80;;;;;;4899893;29;20036;-71
2021/08/28 03:14:10;;;;;;;0.00;0.00;;;19.10;74.70;;;;;;4899606;29;20032;-74
2021/08/28 03:16:39;;;;;;;0.00;0.00;;;19.10;74.60;;;;;;4900119;29;20151;-71
2021/08/28 03:19:07;;;;;;;0.00;0.00;;;19.10;74.50;;;;;;4899699;29;20037;-71
2021/08/28 03:21:33;;;;;;;0.00;0.00;;;19.10;74.30;;;;;;4900372;29;20040;-71
2021/08/28 03:24:01;;;;;;;0.00;0.00;;;19.10;74.20;;;;;;4899924;29;20029;-71
2021/08/28 03:26:30;;;;;;;0.00;0.00;;;19.20;74.10;;;;;;4900565;29;20115;-72
2021/08/28 03:28:58;;;;;;;0.00;0.00;;;19.10;74.20;;;;;;4899552;29;20032;-73
2021/08/28 03:31:25;;;;;;;0.00;0.00;;;19.20;74.20;;;;;;4900545;29;20110;-74
2021/08/28 03:33:57;;;;;;;0.00;0.00;;;19.20;74.30;;;;;;4900099;29;20047;-73
2021/08/28 03:36:23;;;;;;;0.00;0.00;;;19.20;74.20;;;;;;4899592;29;20043;-73
2021/08/28 03:38:50;;;;;;;0.00;0.00;;;19.20;74.20;;;;;;4899591;29;20029;-73
2021/08/28 03:41:16;;;;;;;0.00;0.00;;;19.30;74.10;;;;;;4882787;29;20039;-73
2021/08/28 03:43:47;;;;;;;0.00;0.00;;;19.30;73.90;;;;;;4899967;29;20480;-73
2021/08/28 03:46:14;;;;;;;0.00;0.00;;;19.40;73.80;;;;;;4899637;29;20393;-73
2021/08/28 03:48:41;;;;;;;0.00;0.00;;;19.40;73.80;;;;;;4900120;29;20024;-72
2021/08/28 03:51:07;;;;;;;0.00;0.00;;;19.40;73.60;;;;;;4899397;29;20037;-72
2021/08/28 03:53:33;;;;;;;0.00;0.00;;;19.40;73.50;;;;;;4899264;29;20047;-74
2021/08/28 03:55:59;;;;;;;0.00;0.00;;;19.40;73.30;;;;;;4899544;29;20406;-74
2021/08/28 03:58:26;;;;;;;0.00;0.00;;;19.40;73.20;;;;;;4899710;29;20377;-73
2021/08/28 04:00:52;;;;;;;0.00;0.00;;;19.40;73.30;;;;;;4899838;29;20111;-72
2021/08/28 04:03:18;;;;;;;0.00;0.00;;;19.40;73.20;;;;;;4882511;29;20043;-73
2021/08/28 04:05:44;;;;;;;0.00;0.00;;;19.40;73.20;;;;;;4898890;29;20063;-72
2021/08/28 04:08:10;;;;;;;0.00;0.00;;;19.40;73.00;;;;;;4899004;29;20212;-73
2021/08/28 04:10:36;;;;;;;0.00;0.00;;;19.40;72.90;;;;;;4898902;29;20025;-71
2021/08/28 04:13:03;;;;;;;0.00;0.00;;;19.50;72.80;;;;;;4899113;29;20091;-72
2021/08/28 04:15:28;;;;;;;0.00;0.00;;;19.60;72.50;;;;;;4882255;29;20488;-72
2021/08/28 04:17:55;;;;;;;0.00;0.00;;;19.70;72.20;;;;;;4899012;29;20032;-72
2021/08/28 04:20:21;;;;;;;0.00;0.00;;;19.80;71.90;;;;;;4898827;29;20065;-73
2021/08/28 04:22:47;;;;;;;0.00;0.00;;;19.80;71.60;;;;;;4898734;29;20109;-72
2021/08/28 04:25:13;;;;;;;0.00;0.00;;;19.90;71.30;;;;;;4898786;29;20029;-72
2021/08/28 04:27:39;;;;;;;0.00;0.00;;;19.90;71.00;;;;;;4881924;29;20035;-72
2021/08/28 04:30:06;;;;;;;0.00;0.00;;;20.00;70.80;;;;;;4881972;29;20512;-71
2021/08/28 04:32:32;;;;;;;0.00;0.00;;;20.00;70.80;;;;;;4898891;29;20037;-72
2021/08/28 04:34:57;;;;;;;0.00;0.00;;;20.10;70.60;;;;;;4881958;29;20033;-72
2021/08/28 04:37:23;;;;;;;0.00;0.00;;;20.10;70.40;;;;;;4898479;29;20024;-72
2021/08/28 04:39:49;;;;;;;0.00;0.00;;;20.10;70.40;;;;;;4881918;29;20041;-72
2021/08/28 04:42:15;;;;;;;0.00;0.00;;;20.10;70.30;;;;;;4898787;29;20037;-72
2021/08/28 04:44:40;;;;;;;0.00;0.00;;;20.00;70.30;;;;;;4899002;29;20035;-72
2021/08/28 04:47:06;;;;;;;0.00;0.00;;;20.00;70.50;;;;;;4898769;29;20060;-72
2021/08/28 04:49:32;;;;;;;0.00;0.00;;;20.00;70.70;;;;;;4898180;29;20385;-73
2021/08/28 04:51:59;;;;;;;0.00;0.00;;;20.00;70.80;;;;;;4898554;29;20030;-73
2021/08/28 04:54:25;;;;;;;0.00;0.00;;;20.00;70.80;;;;;;4881567;29;20028;-73
2021/08/28 04:56:51;;;;;;;0.00;0.00;;;20.10;71.00;;;;;;4898337;29;20416;-73
2021/08/28 04:59:17;;;;;;;0.00;0.00;;;20.10;71.00;;;;;;4898414;29;20120;-73
2021/08/28 05:01:43;;;;;;;0.00;0.00;;;20.20;70.80;;;;;;4881619;29;20036;-73
2021/08/28 05:04:08;;;;;;;0.00;0.00;;;20.40;70.50;;;;;;4897662;29;20028;-77
2021/08/28 05:06:34;;;;;;;0.00;0.00;;;20.50;70.10;;;;;;4897684;29;20032;-73
2021/08/28 05:09:00;;;;;;;0.00;0.00;;;20.50;69.70;;;;;;4898297;29;20108;-73
2021/08/28 05:11:26;;;;;;;0.00;0.00;;;20.60;69.60;;;;;;4898813;29;20365;-74
2021/08/28 05:13:52;;;;;;;0.00;0.00;;;20.60;69.40;;;;;;4881465;29;20538;-74
2021/08/28 05:16:18;;;;;;;0.00;0.00;;;20.60;69.40;;;;;;4898327;29;20111;-74
2021/08/28 05:18:43;;;;;;;0.00;0.00;;;20.60;69.50;;;;;;4898411;29;20032;-74
2021/08/28 05:21:09;;;;;;;0.00;0.00;;;20.60;69.50;;;;;;4898378;29;20032;-72
2021/08/28 05:23:35;;;;;;;0.00;0.00;;;20.50;69.60;;;;;;4898260;29;20358;-72
2021/08/28 05:26:00;;;;;;;0.00;0.00;;;20.50;69.60;;;;;;4898320;29;20501;-72
2021/08/28 05:28:26;;;;;;;0.00;0.00;;;20.60;69.80;;;;;;4898067;29;20035;-72
2021/08/28 05:30:52;;;;;;;0.00;0.00;;;20.60;69.80;;;;;;4898571;29;20080;-73
2021/08/28 05:33:18;;;;;;;0.00;0.00;;;20.70;69.80;;;;;;4898616;29;20036;-73
2021/08/28 05:35:43;;;;;;;0.00;0.00;;;20.70;69.60;;;;;;4898024;29;20085;-73
2021/08/28 05:38:09;;;;;;;0.00;0.00;;;20.70;69.50;;;;;;4898466;29;20059;-73
2021/08/28 05:40:36;;;;;;;0.00;0.00;;;20.70;69.60;;;;;;4899504;29;20029;-73
2021/08/28 05:43:01;;;;;;;0.00;0.00;;;20.80;69.30;;;;;;4902299;29;20365;-74
2021/08/28 05:45:27;;;;;;;0.00;0.00;;;20.90;68.80;;;;;;4901771;29;20108;-72
2021/08/28 05:47:53;;;;;;;0.00;0.00;;;20.90;68.40;;;;;;4901105;29;20480;-75
2021/08/28 05:50:19;;;;;;;0.00;0.00;;;21.00;68.10;;;;;;4901386;29;20051;-73
2021/08/28 05:52:45;;;;;;;0.10;0.10;;;21.10;68.10;;;;;;4884984;29;20095;-73
2021/08/28 05:55:13;;;;;;;0.35;0.00;;;21.20;68.00;;;;;;4901455;29;20029;-72
2021/08/28 05:57:39;;;;;;;0.00;0.00;;;21.30;68.00;;;;;;4901477;29;20025;-72
2021/08/28 06:00:07;;;;;;;0.00;0.00;;;21.40;68.00;;;;;;4901157;29;20024;-73
2021/08/28 06:02:35;;;;;;;0.00;0.00;;;21.50;67.70;;;;;;4884790;29;20077;-73
2021/08/28 06:05:00;;;;;;;0.00;0.00;;;21.70;67.70;;;;;;4901717;29;20028;-72
2021/08/28 06:07:26;;;;;;;0.03;0.03;;;21.80;67.20;;;;;;4901372;29;20036;-75
2021/08/28 06:09:52;;;;;;;0.00;0.00;;;21.90;66.90;;;;;;4884410;29;20036;-74
2021/08/28 06:12:18;;;;;;;0.00;0.00;;;22.10;66.70;;;;;;4900925;29;20115;-72
2021/08/28 06:14:44;;;;;;;0.00;0.00;;;22.30;66.30;;;;;;4901153;29;20032;-74
2021/08/28 06:17:10;;;;;;;0.00;0.00;;;22.50;66.00;;;;;;4901671;29;20116;-73
2021/08/28 06:19:36;;;;;;;0.10;0.10;;;22.70;65.50;;;;;;4901073;29;20064;-74
2021/08/28 06:22:02;;;;;;;0.10;0.10;;;23.00;64.70;;;;;;4901302;29;20033;-74
2021/08/28 06:24:27;;;;;;;0.10;0.10;;;23.30;64.20;;;;;;4901214;29;20035;-74
2021/08/28 06:26:53;;;;;;;0.00;0.00;;;23.60;63.50;;;;;;4884793;29;20039;-73
2021/08/28 06:29:19;;;;;;;0.00;0.00;;;23.90;62.80;;;;;;4900398;29;20052;-73
2021/08/28 06:31:44;;;;;;;0.00;0.00;;;24.20;62.00;;;;;;4901139;29;20035;-73
2021/08/28 06:34:10;;;;;;;0.55;0.00;;;24.40;61.50;;;;;;4900896;29;20029;-73
2021/08/28 06:36:36;;;;;;;0.00;0.00;;;24.60;61.10;;;;;;4901186;29;20032;-74
2021/08/28 06:39:02;;;;;;;0.00;0.00;;;24.70;60.80;;;;;;4883647;29;20401;-74
2021/08/28 06:41:27;;;;;;;0.00;0.00;;;24.90;60.30;;;;;;4900306;29;20032;-74
2021/08/28 06:43:53;;;;;;;0.00;0.00;;;24.90;59.70;;;;;;4900334;29;20032;-73
2021/08/28 06:46:19;;;;;;;0.00;0.00;;;25.00;59.50;;;;;;4899839;29;20039;-73
2021/08/28 06:48:45;;;;;;;0.00;0.00;;;25.00;59.10;;;;;;4900345;29;20060;-73
2021/08/28 06:51:10;;;;;;;0.00;0.00;;;25.10;59.50;;;;;;4899895;29;20029;-74
2021/08/28 06:53:36;;;;;;;0.00;0.00;;;25.10;58.60;;;;;;4900531;29;20536;-74
2021/08/28 06:56:02;;;;;;;0.00;0.00;;;25.10;58.40;;;;;;4900225;29;20119;-75
2021/08/28 06:58:28;;;;;;;0.00;0.00;;;25.10;58.40;;;;;;4900555;29;20116;-75
2021/08/28 07:00:54;;;;;;;0.00;0.00;;;25.10;58.50;;;;;;4883520;29;20172;-74
2021/08/28 07:03:20;;;;;;;0.00;0.00;;;25.10;58.50;;;;;;4900099;29;20033;-73
2021/08/28 07:05:45;;;;;;;0.00;0.00;;;25.10;58.40;;;;;;4899458;29;20039;-74
2021/08/28 07:08:11;;;;;;;0.00;0.00;;;25.10;58.40;;;;;;4899827;29;20485;-72
2021/08/28 07:10:37;;;;;;;0.10;0.10;;;25.20;58.20;;;;;;4900635;29;20041;-74
2021/08/28 07:13:03;;;;;;;0.00;0.00;;;25.10;57.90;;;;;;4900594;29;20040;-73
2021/08/28 07:15:28;;;;;;;0.00;0.00;;;25.10;58.70;;;;;;4898619;29;20033;-76
2021/08/28 07:17:54;;;;;;;0.00;0.00;;;25.10;58.40;;;;;;4900044;29;20028;-74
2021/08/28 07:20:20;;;;;;;0.00;0.00;;;25.10;58.50;;;;;;4900599;29;20067;-73
2021/08/28 07:22:45;;;;;;;0.00;0.00;;;25.00;58.50;;;;;;4883194;29;20509;-72
2021/08/28 07:25:11;;;;;;;0.00;0.00;;;25.00;58.90;;;;;;4883214;29;20089;-73
2021/08/28 07:27:38;;;;;;;0.00;0.00;;;25.00;59.20;;;;;;4899882;29;20525;-74
2021/08/28 07:30:06;;;;;;;0.00;0.00;;;25.00;59.20;;;;;;4899991;29;20048;-74
2021/08/28 07:32:32;;;;;;;0.00;0.00;;;25.10;59.20;;;;;;4898994;29;20040;-75
2021/08/28 07:34:58;;;;;;;0.00;0.00;;;25.10;59.20;;;;;;4899516;29;20466;-74
2021/08/28 07:37:23;;;;;;;0.00;0.00;;;25.10;59.50;;;;;;4899773;29;20104;-74
2021/08/28 07:39:49;;;;;;;0.00;0.00;;;25.20;59.20;;;;;;4898282;29;20033;-74
2021/08/28 07:42:15;;;;;;;0.17;0.00;;;25.20;59.00;;;;;;4899523;29;20039;-76
2021/08/28 07:44:41;;;;;;;0.25;0.00;;;25.20;59.20;;;;;;4899483;29;20087;-72
2021/08/28 07:47:07;;;;;;;0.00;0.00;;;25.20;59.40;;;;;;4899609;29;20426;-73
2021/08/28 07:49:33;;;;;;;0.00;0.00;;;25.30;59.70;;;;;;4899288;29;20393;-73
2021/08/28 07:51:58;;;;;;;0.00;0.00;;;25.30;59.60;;;;;;4899406;29;20032;-73
2021/08/28 07:54:24;;;;;;;0.00;0.00;;;25.30;59.80;;;;;;4899093;29;20446;-72
2021/08/28 07:56:50;;;;;;;0.00;0.00;;;25.30;59.70;;;;;;4882664;29;20160;-74
2021/08/28 07:59:15;;;;;;;0.00;0.00;;;25.40;60.00;;;;;;4899355;29;20025;-73
2021/08/28 08:01:41;;;;;;;0.00;0.00;;;25.40;60.00;;;;;;4899318;29;20075;-75
2021/08/28 08:04:07;;;;;;;0.00;0.00;;;25.50;59.80;;;;;;4881699;29;20457;-73
2021/08/28 08:06:32;;;;;;;0.00;0.00;;;25.60;60.00;;;;;;4898181;29;20032;-73
2021/08/28 08:08:58;;;;;;;0.00;0.00;;;25.70;59.80;;;;;;4898897;29;20055;-73
2021/08/28 08:11:24;;;;;;;0.00;0.00;;;25.90;59.80;;;;;;4898925;29;20072;-72
2021/08/28 08:13:50;;;;;;;0.00;0.00;;;26.10;59.60;;;;;;4899134;29;20036;-73
2021/08/28 08:16:15;;;;;;;0.00;0.00;;;26.20;58.90;;;;;;4899016;29;20036;-73
2021/08/28 08:18:41;;;;;;;0.00;0.00;;;26.40;58.60;;;;;;4898937;29;20032;-72
2021/08/28 08:21:07;;;;;;;0.00;0.00;;;26.60;58.40;;;;;;4882120;29;20038;-72
2021/08/28 08:23:33;;;;;;;0.00;0.00;;;26.80;58.10;;;;;;4898778;29;20036;-76
2021/08/28 08:25:59;;;;;;;0.00;0.00;;;26.90;57.80;;;;;;4898993;29;20104;-73
2021/08/28 08:28:24;;;;;;;0.00;0.00;;;27.00;57.80;;;;;;4899041;29;20477;-72
2021/08/28 08:30:50;;;;;;;0.00;0.00;;;27.00;57.80;;;;;;4898755;29;20056;-74
2021/08/28 08:33:16;;;;;;;0.00;0.00;;;27.10;57.50;;;;;;4899046;29;20043;-73
2021/08/28 08:35:42;;;;;;;0.10;0.10;;;27.20;57.60;;;;;;4898963;29;20346;-75
2021/08/28 08:38:08;;;;;;;0.00;0.00;;;27.20;57.70;;;;;;4882499;29;20470;-73
2021/08/28 08:40:33;;;;;;;0.00;0.00;;;27.30;57.80;;;;;;4898858;29;20458;-73
2021/08/28 08:43:04;;;;;;;0.00;0.00;;;27.50;58.30;;;;;;4898465;29;20037;-72
2021/08/28 08:45:31;;;;;;;0.00;0.00;;;27.60;57.50;;;;;;4898240;29;20508;-76
2021/08/28 08:47:57;;;;;;;0.00;0.00;;;27.80;57.40;;;;;;4898756;29;20040;-76
2021/08/28 08:50:25;;;;;;;0.00;0.00;;;28.10;56.90;;;;;;4898596;29;20025;-74
2021/08/28 08:53:02;;;;;;;0.00;0.00;;;28.20;56.60;;;;;;4898546;29;20429;-75
2021/08/28 08:55:28;;;;;;;0.00;0.00;;;28.40;56.10;;;;;;4898600;29;20021;-72
2021/08/28 08:57:54;;;;;;;0.00;0.00;;;28.60;55.80;;;;;;4881615;29;20426;-73
2021/08/28 09:00:20;;;;;;;0.00;0.00;;;28.70;55.50;;;;;;4898514;29;20029;-73
2021/08/28 09:02:45;;;;;;;0.00;0.00;;;28.90;55.60;;;;;;4898510;29;20493;-73
2021/08/28 09:05:11;;;;;;;0.00;0.00;;;29.10;55.40;;;;;;4898271;29;20047;-74
2021/08/28 09:07:37;;;;;;;0.00;0.00;;;29.10;54.90;;;;;;4880856;29;20028;-73
2021/08/28 09:10:03;;;;;;;0.00;0.00;;;29.00;55.10;;;;;;4881624;29;20033;-73
2021/08/28 09:12:41;;;;;;;0.00;0.00;;;29.00;55.20;;;;;;4898574;29;20032;-74
2021/08/28 09:15:14;;;;;;;0.00;0.00;;;29.10;54.70;;;;;;4901083;29;20033;-73
2021/08/28 09:17:43;;;;;;;0.00;0.00;;;29.00;55.00;;;;;;4901831;29;20033;-73
2021/08/28 09:20:22;;;;;;;0.00;0.00;;;29.40;54.60;;;;;;4902760;29;20040;-74
2021/08/28 09:22:49;;;;;;;0.00;0.00;;;29.90;54.00;;;;;;4885342;29;20036;-73
2021/08/28 09:25:23;;;;;;;0.00;0.00;;;30.20;53.30;;;;;;4902387;29;20037;-74
2021/08/28 09:27:50;;;;;;;0.00;0.00;;;29.90;53.20;;;;;;4902069;29;20116;-74
2021/08/28 09:30:30;;;;;;;0.00;0.00;;;29.60;53.70;;;;;;4901952;29;20083;-75
2021/08/28 09:32:58;;;;;;;0.00;0.00;;;29.50;53.70;;;;;;4885155;29;20036;-71
2021/08/28 09:35:27;;;;;;;0.00;0.00;;;29.20;54.20;;;;;;4901877;29;20032;-72
2021/08/28 09:38:01;;;;;;;0.00;0.00;;;29.30;54.20;;;;;;4901955;29;20037;-74
2021/08/28 09:40:33;;;;;;;0.00;0.00;;;29.10;53.90;;;;;;4901843;29;20559;-74
2021/08/28 09:43:05;;;;;;;0.00;0.00;;;29.10;53.90;;;;;;4897636;29;20392;-73
2021/08/28 09:45:31;;;;;;;0.00;0.00;;;28.80;53.90;;;;;;4902010;29;20044;-74
2021/08/28 09:47:57;;;;;;;0.00;0.00;;;28.40;54.50;;;;;;4883909;29;20032;-74
2021/08/28 09:50:34;;;;;;;0.00;0.00;;;28.10;55.10;;;;;;4901706;29;20028;-73
2021/08/28 09:53:02;;;;;;;0.00;0.00;;;27.90;55.50;;;;;;4901347;29;20501;-74
2021/08/28 09:55:33;;;;;;;0.00;0.00;;;27.70;55.90;;;;;;4901724;29;20027;-74
2021/08/28 09:57:59;;;;;;;0.00;0.00;;;27.60;56.20;;;;;;4901569;29;20345;-74
2021/08/28 10:00:28;;;;;;;0.00;0.00;;;28.00;56.40;;;;;;4901520;29;20039;-74
2021/08/28 10:03:05;;;;;;;0.00;0.00;;;28.50;55.60;;;;;;4901949;29;20124;-74
2021/08/28 10:05:36;;;;;;;0.00;0.00;;;29.20;55.00;;;;;;4901473;29;20088;-74
2021/08/28 10:08:09;;;;;;;0.00;0.00;;;30.40;53.40;;;;;;4901180;29;20115;-74
2021/08/28 10:10:37;;;;;;;0.00;0.00;;;31.50;51.70;;;;;;4884505;29;20498;-74
2021/08/28 10:13:04;;;;;;;0.00;0.00;;;32.40;50.70;;;;;;4901131;29;20041;-74
2021/08/28 10:15:32;;;;;;;0.00;0.00;;;33.00;49.00;;;;;;4901373;29;20380;-75
2021/08/28 10:17:58;;;;;;;0.00;0.00;;;33.50;48.20;;;;;;4901056;29;20389;-75
2021/08/28 10:20:27;;;;;;;0.00;0.00;;;34.00;47.50;;;;;;4901139;29;20035;-74
2021/08/28 10:22:55;;;;;;;0.00;0.00;;;34.30;47.10;;;;;;4901519;29;20036;-73
2021/08/28 10:25:24;;;;;;;0.00;0.00;;;34.00;46.40;;;;;;4900315;29;20033;-74
2021/08/28 10:27:51;;;;;;;0.00;0.00;;;33.70;46.10;;;;;;4900937;29;20036;-74
2021/08/28 10:30:18;;;;;;;0.00;0.00;;;33.40;46.20;;;;;;4900608;29;20057;-75
2021/08/28 10:32:46;;;;;;;0.00;0.00;;;32.90;46.50;;;;;;4900972;29;20037;-74
2021/08/28 10:35:14;;;;;;;0.00;0.00;;;32.30;48.10;;;;;;4900539;29;20024;-75
2021/08/28 10:37:40;;;;;;;0.00;0.00;;;32.70;47.50;;;;;;4901062;29;20107;-74
2021/08/28 10:40:11;;;;;;;0.00;0.00;;;33.50;47.00;;;;;;4900461;29;20033;-74
2021/08/28 10:42:39;;;;;;;0.00;0.00;;;34.40;46.30;;;;;;4901206;29;20120;-74
2021/08/28 10:45:07;;;;;;;0.00;0.00;;;35.10;45.20;;;;;;4900572;29;20036;-74
2021/08/28 10:47:33;;;;;;;0.00;0.00;;;35.20;44.70;;;;;;4901170;29;20028;-74
2021/08/28 10:50:08;;;;;;;0.00;0.00;;;35.60;44.50;;;;;;4883748;29;20040;-75
2021/08/28 10:52:37;;;;;;;0.00;0.00;;;36.40;43.80;;;;;;4900815;29;20393;-74
2021/08/28 10:55:13;;;;;;;0.00;0.00;;;37.00;43.10;;;;;;4900762;29;20088;-74
2021/08/28 10:57:40;;;;;;;0.00;0.00;;;37.50;42.40;;;;;;4883929;29;20536;-75
2021/08/28 11:00:08;;;;;;;0.00;0.00;;;37.90;42.10;;;;;;4901353;29;20036;-74
2021/08/28 11:02:54;;;;;;;0.00;0.00;;;38.30;41.40;;;;;;4900231;29;20541;-74
2021/08/28 11:05:28;;;;;;;0.00;0.00;;;38.70;40.60;;;;;;4900239;29;20095;-75
2021/08/28 11:08:13;;;;;;;0.00;0.00;;;38.20;40.90;;;;;;4883146;29;20115;-73
2021/08/28 11:10:39;;;;;;;0.00;0.00;;;37.70;41.10;;;;;;4900505;29;20044;-74
2021/08/28 11:13:05;;;;;;;0.00;0.00;;;37.40;41.60;;;;;;4900352;29;20040;-73
2021/08/28 11:15:34;;;;;;;0.00;0.00;;;37.80;41.60;;;;;;4900386;29;20036;-75
2021/08/28 11:18:11;;;;;;;0.00;0.00;;;38.30;42.00;;;;;;4900069;29;20104;-74
2021/08/28 11:20:39;;;;;;;0.00;0.00;;;38.80;40.20;;;;;;4900413;29;20104;-76
2021/08/28 11:23:07;;;;;;;0.00;0.00;;;38.40;39.90;;;;;;4899954;29;20041;-75
2021/08/28 11:25:35;;;;;;;0.00;0.00;;;37.30;40.30;;;;;;4900012;29;20029;-75
2021/08/28 11:28:03;;;;;;;0.00;0.00;;;36.00;41.30;;;;;;4899666;29;20025;-74
2021/08/28 11:30:46;;;;;;;0.00;0.00;;;34.80;42.40;;;;;;4900161;29;20087;-75
2021/08/28 11:33:21;;;;;;;;;;;34.20;43.70;;;;;;4899858;29;20036;-75
2021/08/28 11:35:49;;;;;;;0.00;0.00;;;34.90;44.60;;;;;;4899948;29;19943;-75
2021/08/28 11:38:20;;;;;;;0.00;0.00;;;36.30;43.60;;;;;;4899430;29;20089;-73
2021/08/28 11:41:01;;;;;;;0.00;0.00;;;36.60;41.80;;;;;;4882892;29;20381;-74
2021/08/28 11:43:42;;;;;;;0.00;0.00;;;35.90;41.60;;;;;;4899770;29;20465;-75
2021/08/28 11:46:09;;;;;;;0.00;0.00;;;34.90;42.40;;;;;;4895774;29;20036;-75
2021/08/28 11:48:37;;;;;;;0.00;0.00;;;34.30;43.10;;;;;;4899826;29;20382;-74
2021/08/28 11:51:15;;;;;;;0.00;0.00;;;33.90;43.70;;;;;;4899824;29;20056;-74
2021/08/28 11:53:42;;;;;;;0.00;0.00;;;33.50;44.10;;;;;;4899898;29;20032;-74
2021/08/28 11:56:17;;;;;;;0.00;0.00;;;33.00;44.40;;;;;;4899286;29;20061;-74
2021/08/28 11:59:00;;;;;;;0.00;0.00;;;32.50;44.40;;;;;;4899150;29;20035;-75
2021/08/28 12:01:38;;;;;;;0.00;0.00;;;33.00;44.90;;;;;;4898885;29;20033;-75
2021/08/28 12:04:09;;;;;;;0.00;0.00;;;34.30;45.30;;;;;;4899543;29;20072;-74
2021/08/28 12:06:38;;;;;;;0.00;0.00;;;35.90;43.60;;;;;;4899009;29;20032;-73
2021/08/28 12:09:06;;;;;;;0.00;0.00;;;37.10;42.10;;;;;;4898109;29;20084;-75
2021/08/28 12:11:32;;;;;;;0.00;0.00;;;37.60;41.00;;;;;;4898450;29;20025;-73
2021/08/28 12:14:00;;;;;;;0.00;0.00;;;37.10;40.90;;;;;;4898898;29;20120;-74
2021/08/28 12:16:36;;;;;;;0.00;0.00;;;36.40;40.40;;;;;;4899386;29;20033;-74
2021/08/28 12:19:21;;;;;;;0.00;0.00;;;36.00;41.00;;;;;;4898891;29;20028;-74
2021/08/28 12:22:04;;;;;;;0.00;0.00;;;36.60;40.90;;;;;;4898692;29;20393;-74
2021/08/28 12:24:48;;;;;;;0.00;0.00;;;37.50;39.80;;;;;;4882590;29;20032;-75
2021/08/28 12:27:14;;;;;;;0.00;0.00;;;38.40;39.10;;;;;;4899674;29;20403;-74
2021/08/28 12:29:45;;;;;;;0.00;0.00;;;38.80;38.40;;;;;;4899163;29;20107;-74
2021/08/28 12:32:20;;;;;;;0.00;0.00;;;39.10;38.00;;;;;;4899258;29;20458;-73
2021/08/28 12:34:51;;;;;;;0.00;0.00;;;39.80;37.60;;;;;;4899347;29;20116;-74
2021/08/28 12:37:20;;;;;;;0.00;0.00;;;40.40;37.10;;;;;;4899367;29;20033;-75
2021/08/28 12:39:48;;;;;;;0.00;0.00;;;41.10;36.40;;;;;;4898108;29;20456;-75
2021/08/28 12:42:16;;;;;;;0.10;0.00;;;41.60;35.90;;;;;;4898644;29;20024;-75
2021/08/28 12:44:48;;;;;;;0.00;0.00;;;41.90;35.30;;;;;;4898557;29;20028;-74
2021/08/28 12:47:17;;;;;;;0.00;0.00;;;42.30;34.90;;;;;;4898762;29;20035;-74
2021/08/28 12:49:42;;;;;;;0.00;0.00;;;42.40;34.60;;;;;;4898433;29;20076;-74
2021/08/28 12:52:11;;;;;;;0.00;0.00;;;42.40;34.30;;;;;;4898395;29;20024;-74
2021/08/28 12:54:45;;;;;;;0.00;0.00;;;42.00;34.10;;;;;;4899055;29;20163;-73